Webb, Alabama
Current Conditions -  °F | °C
As of 5:01 PM on Saturday 25 Oct 2014 (Local Time) from KDHN Reporting Station
Few Clouds Few Clouds  
Wind Chill: 75°   Ceiling: Unl
Heat Index: 75°   Visibility: 8mi
Dew Point: 48°   Wind: 9mph
Humidity: 38%   Direction: 340°NNW
Pressure: 30.05"   Gusts: NA
Location:  31.26°N, 85.27°W
Report Text: KDHN 252201Z 34008KT 8SM FEW001 24/09 A3005 RMK AO2
Loading
Personal Weather Stations






























Interactive Weather Map
Tropical Storm Tracking
New forecast layout! Learn more

10-Day Weather Forecast

Advertisements
Track Severe Weather on mobile